createdAt,value
2023-03-07T00:00:35.874Z,997.05
2023-03-07T00:04:35.961Z,997.14
2023-03-07T00:08:35.958Z,997.12
2023-03-07T00:12:36.020Z,997.15
2023-03-07T00:16:36.371Z,997.18
2023-03-07T00:20:35.415Z,997.25
2023-03-07T00:24:35.293Z,997.21
2023-03-07T00:28:35.246Z,997.29
2023-03-07T00:32:35.685Z,997.19
2023-03-07T00:36:35.773Z,997.19
2023-03-07T00:40:35.898Z,997.16
2023-03-07T00:44:35.886Z,997.2
2023-03-07T00:48:35.994Z,997.11
2023-03-07T00:52:36.111Z,997.12
2023-03-07T00:56:35.146Z,997.04
2023-03-07T01:00:39.455Z,996.94
2023-03-07T01:04:35.743Z,996.94
2023-03-07T01:08:35.674Z,996.94
2023-03-07T01:12:35.817Z,996.92
2023-03-07T01:16:36.152Z,996.92
2023-03-07T01:20:35.215Z,996.96
2023-03-07T01:24:35.323Z,996.83
2023-03-07T01:28:35.374Z,996.78
2023-03-07T01:32:36.069Z,996.69
2023-03-07T01:36:36.203Z,996.76
2023-03-07T01:40:35.892Z,996.68
2023-03-07T01:44:36.013Z,996.75
2023-03-07T01:48:35.210Z,996.66
2023-03-07T01:52:35.203Z,996.65
2023-03-07T01:56:35.339Z,996.61
2023-03-07T02:00:39.405Z,996.48
2023-03-07T02:04:35.870Z,996.55
2023-03-07T02:08:35.499Z,996.47
2023-03-07T02:12:35.750Z,996.41
2023-03-07T02:16:36.247Z,996.38
2023-03-07T02:20:36.059Z,996.25
2023-03-07T02:24:35.094Z,996.39
2023-03-07T02:28:35.988Z,996.33
2023-03-07T02:32:36.412Z,996.24
2023-03-07T02:36:36.044Z,996.25
2023-03-07T02:40:36.002Z,996.23
2023-03-07T02:44:35.861Z,996.2
2023-03-07T02:48:35.676Z,996.15
2023-03-07T02:52:35.544Z,996.26
2023-03-07T02:56:35.796Z,996.04
2023-03-07T03:00:39.701Z,996.02
2023-03-07T03:04:35.835Z,996.09
2023-03-07T03:08:35.735Z,995.98
2023-03-07T03:12:35.605Z,995.92
2023-03-07T03:16:35.738Z,995.95
2023-03-07T03:20:35.669Z,995.82
2023-03-07T03:24:35.591Z,995.82
2023-03-07T03:28:35.625Z,996.07
2023-03-07T03:32:35.796Z,995.95
2023-03-07T03:36:36.039Z,995.95
2023-03-07T03:40:36.002Z,996.03
2023-03-07T03:44:36.174Z,995.97
2023-03-07T03:48:35.939Z,995.96
2023-03-07T03:52:35.756Z,995.86
2023-03-07T03:56:35.587Z,995.9
2023-03-07T04:00:38.649Z,995.94
2023-03-07T04:04:35.648Z,995.89
2023-03-07T04:08:35.409Z,995.91
2023-03-07T04:12:35.461Z,995.84
2023-03-07T04:16:35.790Z,995.81
2023-03-07T04:20:35.822Z,995.79
2023-03-07T04:24:35.873Z,995.85
2023-03-07T04:28:35.916Z,995.84
2023-03-07T04:32:36.306Z,995.82
2023-03-07T04:36:36.186Z,995.71
2023-03-07T04:40:36.121Z,995.78
2023-03-07T04:44:35.159Z,995.79
2023-03-07T04:48:35.305Z,995.63
2023-03-07T04:52:35.442Z,995.75
2023-03-07T04:56:35.411Z,995.69
2023-03-07T05:00:41.727Z,995.72
2023-03-07T05:04:36.001Z,995.7
2023-03-07T05:08:35.798Z,995.75
2023-03-07T05:12:35.898Z,995.72
2023-03-07T05:16:36.033Z,995.75
2023-03-07T05:20:36.107Z,995.83
2023-03-07T05:24:36.090Z,995.87
2023-03-07T05:28:35.203Z,995.9
2023-03-07T05:32:35.722Z,995.81
2023-03-07T05:36:35.526Z,995.83
2023-03-07T05:40:35.728Z,995.78
2023-03-07T05:44:35.923Z,995.65
2023-03-07T05:48:35.982Z,995.76
2023-03-07T05:52:36.036Z,995.84
2023-03-07T05:56:35.046Z,995.82
2023-03-07T06:00:38.810Z,995.78
2023-03-07T06:04:35.732Z,995.83
2023-03-07T06:08:35.696Z,995.82
2023-03-07T06:12:35.713Z,995.91
2023-03-07T06:16:36.587Z,995.81
2023-03-07T06:20:36.255Z,995.89
2023-03-07T06:24:35.187Z,995.95
2023-03-07T06:28:35.452Z,995.79
2023-03-07T06:32:35.516Z,995.78
2023-03-07T06:36:35.751Z,995.85
2023-03-07T06:40:36.065Z,995.96
2023-03-07T06:44:35.934Z,995.88
2023-03-07T06:48:36.020Z,995.83
2023-03-07T06:52:35.279Z,995.95
2023-03-07T06:56:35.146Z,995.87
2023-03-07T07:00:39.102Z,995.94
2023-03-07T07:04:35.974Z,995.89
2023-03-07T07:08:35.667Z,995.81
2023-03-07T07:12:35.772Z,995.87
2023-03-07T07:16:36.049Z,995.87
2023-03-07T07:20:36.099Z,995.87
2023-03-07T07:24:36.035Z,995.96
2023-03-07T07:28:35.169Z,995.97
2023-03-07T07:32:36.843Z,995.91
2023-03-07T07:36:36.102Z,995.94
2023-03-07T07:40:35.255Z,995.87
2023-03-07T07:44:35.888Z,995.89
2023-03-07T07:48:35.934Z,996.03
2023-03-07T07:52:35.965Z,995.99
2023-03-07T07:56:35.873Z,996.04
2023-03-07T08:00:39.550Z,996
2023-03-07T08:04:35.965Z,996.14
2023-03-07T08:08:35.189Z,996.16
2023-03-07T08:12:38.889Z,996.05
2023-03-07T08:16:36.093Z,996.14
2023-03-07T08:20:35.748Z,996.23
2023-03-07T08:24:51.426Z,996.19
2023-03-07T08:28:35.398Z,996.19
2023-03-07T08:32:35.695Z,996.18
2023-03-07T08:36:35.646Z,996.19
2023-03-07T08:40:35.857Z,996.16
2023-03-07T08:44:35.699Z,996.1
2023-03-07T08:48:35.665Z,996.17
2023-03-07T08:52:35.646Z,996.1
2023-03-07T08:56:35.603Z,996.1
2023-03-07T09:00:38.720Z,996.14
2023-03-07T09:04:35.889Z,996.07
2023-03-07T09:08:35.736Z,996.08
2023-03-07T09:12:37.435Z,996.09
2023-03-07T09:16:36.060Z,996.11
2023-03-07T09:20:35.939Z,996.15
2023-03-07T09:24:35.991Z,996.3
2023-03-07T09:28:35.557Z,996.3
2023-03-07T09:32:35.836Z,996.38
2023-03-07T09:36:35.729Z,996.36
2023-03-07T09:40:35.643Z,996.34
2023-03-07T09:44:35.672Z,996.34
2023-03-07T09:48:35.688Z,996.42
2023-03-07T09:52:35.816Z,996.38
2023-03-07T09:56:35.667Z,996.36
2023-03-07T10:00:38.888Z,996.35
2023-03-07T10:04:36.295Z,996.23
2023-03-07T10:08:36.219Z,996.32
2023-03-07T10:12:38.328Z,996.33
2023-03-07T10:16:35.467Z,996.26
2023-03-07T10:20:35.613Z,996.45
2023-03-07T10:24:37.083Z,996.34
2023-03-07T10:28:35.870Z,996.51
2023-03-07T10:32:36.182Z,996.49
2023-03-07T10:36:36.161Z,996.59
2023-03-07T10:40:38.783Z,996.46
2023-03-07T10:44:36.521Z,996.31
2023-03-07T10:48:36.043Z,996.4
2023-03-07T10:52:36.062Z,996.51
2023-03-07T10:56:36.120Z,996.39
2023-03-07T11:00:42.191Z,996.46
2023-03-07T11:04:35.510Z,996.51
2023-03-07T11:08:35.197Z,996.43
2023-03-07T11:12:35.346Z,996.35
2023-03-07T11:16:45.386Z,996.47
2023-03-07T11:20:36.131Z,996.47
2023-03-07T11:24:35.517Z,996.43
2023-03-07T11:28:35.138Z,996.49
2023-03-07T11:32:35.382Z,996.65
2023-03-07T11:36:36.050Z,996.54
2023-03-07T11:40:35.812Z,996.52
2023-03-07T11:44:38.445Z,996.48
2023-03-07T11:48:35.732Z,996.63
2023-03-07T11:52:35.633Z,996.57
2023-03-07T11:56:35.746Z,996.53
2023-03-07T12:00:35.944Z,996.63
2023-03-07T12:04:36.072Z,996.47
2023-03-07T12:08:36.135Z,996.57
2023-03-07T12:12:36.034Z,996.67
2023-03-07T12:16:36.413Z,996.66
2023-03-07T12:20:35.421Z,996.68
2023-03-07T12:24:35.410Z,996.58
2023-03-07T12:28:35.395Z,996.6
2023-03-07T12:32:36.732Z,996.53
2023-03-07T12:36:36.210Z,996.54
2023-03-07T12:40:35.759Z,996.52
2023-03-07T12:44:35.524Z,996.5
2023-03-07T12:48:35.539Z,996.71
2023-03-07T12:52:35.644Z,996.8
2023-03-07T12:56:35.650Z,996.85
2023-03-07T13:00:42.638Z,996.87
2023-03-07T13:04:35.856Z,996.78
2023-03-07T13:08:36.178Z,996.75
2023-03-07T13:12:35.763Z,996.63
2023-03-07T13:16:35.886Z,996.69
2023-03-07T13:20:35.921Z,996.68
2023-03-07T13:24:35.992Z,996.67
2023-03-07T13:28:35.822Z,996.58
2023-03-07T13:32:35.813Z,996.69
2023-03-07T13:36:35.846Z,996.72
2023-03-07T13:40:35.788Z,996.74
2023-03-07T13:44:35.896Z,996.9
2023-03-07T13:48:35.822Z,996.78
2023-03-07T13:52:36.028Z,996.81
2023-03-07T13:56:35.086Z,996.74
2023-03-07T14:00:39.487Z,996.84
2023-03-07T14:04:49.985Z,996.86
2023-03-07T14:08:35.454Z,996.91
2023-03-07T14:12:35.570Z,996.9
2023-03-07T14:16:35.633Z,996.86
2023-03-07T14:20:35.424Z,996.83
2023-03-07T14:24:35.294Z,997.01
2023-03-07T14:28:35.372Z,997.06
2023-03-07T14:32:35.606Z,997.06
2023-03-07T14:36:35.445Z,997.03
2023-03-07T14:40:35.387Z,997.07
2023-03-07T14:44:35.860Z,997.07
2023-03-07T14:48:35.702Z,997.02
2023-03-07T14:52:52.283Z,997.14
2023-03-07T14:56:35.781Z,997.05
2023-03-07T15:00:40.912Z,996.93
2023-03-07T15:04:36.262Z,997.1
2023-03-07T15:08:35.817Z,997.19
2023-03-07T15:12:35.947Z,997.05
2023-03-07T15:16:36.229Z,997.27
2023-03-07T15:20:36.197Z,997.1
2023-03-07T15:24:35.239Z,997.22
2023-03-07T15:28:35.209Z,997.19
2023-03-07T15:32:35.661Z,997.3
2023-03-07T15:36:35.765Z,997.26
2023-03-07T15:40:35.743Z,997.23
2023-03-07T15:44:35.878Z,997.21
2023-03-07T15:48:36.093Z,997.29
2023-03-07T15:52:35.974Z,997.14
2023-03-07T15:56:35.832Z,997.12
2023-03-07T16:00:42.695Z,997.22
2023-03-07T16:04:36.034Z,997.23
2023-03-07T16:08:35.840Z,997.35
2023-03-07T16:12:35.805Z,997.34
2023-03-07T16:16:36.377Z,997.37
2023-03-07T16:20:36.156Z,997.42
2023-03-07T16:24:36.136Z,997.46
2023-03-07T16:28:35.170Z,997.4
2023-03-07T16:32:35.406Z,997.41
2023-03-07T16:36:35.534Z,997.6
2023-03-07T16:40:35.718Z,997.67
2023-03-07T16:44:35.452Z,997.7
2023-03-07T16:48:35.439Z,997.73
2023-03-07T16:52:40.459Z,997.67
2023-03-07T16:56:35.368Z,997.69
2023-03-07T17:00:39.447Z,997.76
2023-03-07T17:04:35.273Z,997.8
2023-03-07T17:08:35.242Z,997.84
2023-03-07T17:12:35.255Z,997.94
2023-03-07T17:16:35.247Z,997.87
2023-03-07T17:20:35.123Z,998.08
2023-03-07T17:24:35.962Z,998.05
2023-03-07T17:28:35.980Z,998.09
2023-03-07T17:32:35.857Z,998.12
2023-03-07T17:36:35.878Z,998.17
2023-03-07T17:40:35.833Z,998.13
2023-03-07T17:44:35.690Z,998.24
2023-03-07T17:48:35.848Z,998.24
2023-03-07T17:52:35.951Z,998.3
2023-03-07T17:56:36.174Z,998.41
2023-03-07T18:00:35.204Z,998.59
2023-03-07T18:04:35.499Z,998.59
2023-03-07T18:08:35.328Z,998.58
2023-03-07T18:12:35.607Z,998.7
2023-03-07T18:16:35.957Z,998.62
2023-03-07T18:20:35.756Z,998.51
2023-03-07T18:24:35.865Z,998.48
2023-03-07T18:28:35.530Z,998.53
2023-03-07T18:32:35.638Z,998.62
2023-03-07T18:36:35.405Z,998.55
2023-03-07T18:40:35.677Z,998.61
2023-03-07T18:44:35.563Z,998.45
2023-03-07T18:48:35.600Z,998.71
2023-03-07T18:52:35.478Z,998.65
2023-03-07T18:56:35.376Z,998.68
2023-03-07T19:00:40.976Z,998.74
2023-03-07T19:04:37.466Z,998.71
2023-03-07T19:08:35.284Z,998.8
2023-03-07T19:12:35.158Z,998.71
2023-03-07T19:16:36.538Z,998.8
2023-03-07T19:20:36.024Z,998.76
2023-03-07T19:24:35.923Z,998.94
2023-03-07T19:28:35.700Z,998.99
2023-03-07T19:32:36.033Z,998.95
2023-03-07T19:36:38.513Z,999.13
2023-03-07T19:40:35.546Z,999.15
2023-03-07T19:44:35.567Z,999.15
2023-03-07T19:48:35.371Z,999.21
2023-03-07T19:52:35.472Z,999.09
2023-03-07T19:56:35.363Z,999.04
2023-03-07T20:00:39.121Z,999.03
2023-03-07T20:04:36.025Z,999.19
2023-03-07T20:08:35.064Z,999.13
2023-03-07T20:12:36.057Z,999.13
2023-03-07T20:16:35.203Z,999.3
2023-03-07T20:20:35.258Z,999.2
2023-03-07T20:24:35.403Z,999.1
2023-03-07T20:28:35.400Z,999.06
2023-03-07T20:32:35.775Z,999.13
2023-03-07T20:36:35.631Z,999.11
2023-03-07T20:40:38.485Z,999.06
2023-03-07T20:44:35.611Z,999.06
2023-03-07T20:48:35.824Z,998.97
2023-03-07T20:52:35.869Z,999.02
2023-03-07T20:56:35.789Z,998.99
2023-03-07T21:00:40.238Z,999.04
2023-03-07T21:04:35.701Z,998.94
2023-03-07T21:08:35.684Z,998.91
2023-03-07T21:12:35.199Z,998.92
2023-03-07T21:16:35.390Z,998.97
2023-03-07T21:20:35.236Z,999.12
2023-03-07T21:24:35.517Z,999.04
2023-03-07T21:28:35.436Z,999.1
2023-03-07T21:32:35.937Z,999.04
2023-03-07T21:36:37.107Z,999.01
2023-03-07T21:40:35.925Z,999.08
2023-03-07T21:44:36.040Z,999.19
2023-03-07T21:48:36.014Z,999.14
2023-03-07T21:52:35.696Z,999.21
2023-03-07T21:56:35.901Z,999.11
2023-03-07T22:00:39.779Z,999.05
2023-03-07T22:04:35.980Z,999.06
2023-03-07T22:08:35.851Z,999.19
2023-03-07T22:12:35.943Z,999.2
2023-03-07T22:16:36.276Z,999.2
2023-03-07T22:20:35.166Z,999.32
2023-03-07T22:24:35.433Z,999.36
2023-03-07T22:28:35.174Z,999.32
2023-03-07T22:32:35.678Z,999.41
2023-03-07T22:36:35.732Z,999.33
2023-03-07T22:40:35.723Z,999.27
2023-03-07T22:44:36.158Z,999.24
2023-03-07T22:48:35.993Z,999.3
2023-03-07T22:52:36.033Z,999.43
2023-03-07T22:56:35.140Z,999.36
2023-03-07T23:00:37.787Z,999.39
2023-03-07T23:04:36.278Z,999.32
2023-03-07T23:08:35.901Z,999.4
2023-03-07T23:12:35.973Z,999.29
2023-03-07T23:16:36.102Z,999.22
2023-03-07T23:20:36.052Z,999.31
2023-03-07T23:24:35.213Z,999.2
2023-03-07T23:28:35.459Z,999.16
2023-03-07T23:32:35.841Z,998.99
2023-03-07T23:36:35.891Z,998.98
2023-03-07T23:40:37.643Z,999.26
2023-03-07T23:44:35.933Z,999.09
2023-03-07T23:48:36.072Z,998.96
2023-03-07T23:52:35.191Z,998.99
2023-03-07T23:56:35.512Z,999.11
